createdAt,value
2023-12-08T00:00:30.105Z,2.90
2023-12-08T00:02:57.012Z,2.92
2023-12-08T00:05:23.904Z,2.88
2023-12-08T00:07:50.954Z,2.94
2023-12-08T00:10:18.025Z,2.95
2023-12-08T00:12:45.926Z,2.94
2023-12-08T00:15:13.136Z,2.96
2023-12-08T00:17:40.077Z,3.01
2023-12-08T00:20:08.214Z,3.02
2023-12-08T00:22:35.208Z,3.00
2023-12-08T00:25:02.052Z,3.02
2023-12-08T00:27:29.174Z,3.02
2023-12-08T00:29:56.046Z,3.00
2023-12-08T00:32:23.048Z,3.04
2023-12-08T00:34:49.882Z,3.07
2023-12-08T00:37:16.861Z,3.06
2023-12-08T00:39:43.823Z,3.10
2023-12-08T00:42:10.728Z,3.08
2023-12-08T00:44:37.582Z,3.04
2023-12-08T00:47:05.678Z,3.02
2023-12-08T00:49:32.817Z,2.99
2023-12-08T00:51:59.745Z,2.98
2023-12-08T00:54:26.574Z,3.02
2023-12-08T00:56:53.392Z,3.05
2023-12-08T00:59:20.364Z,3.01
2023-12-08T01:01:47.313Z,3.03
2023-12-08T01:04:14.364Z,3.10
2023-12-08T01:06:41.498Z,3.06
2023-12-08T01:09:08.511Z,3.06
2023-12-08T01:11:35.456Z,3.07
2023-12-08T01:14:02.470Z,3.10
2023-12-08T01:16:30.845Z,3.16
2023-12-08T01:18:57.789Z,3.21
2023-12-08T01:21:24.609Z,3.23
2023-12-08T01:23:51.510Z,3.21
2023-12-08T01:26:18.426Z,3.17
2023-12-08T01:28:45.703Z,3.15
2023-12-08T01:31:13.329Z,3.12
2023-12-08T01:33:40.420Z,3.13
2023-12-08T01:36:38.673Z,3.15
2023-12-08T01:38:54.612Z,3.15
2023-12-08T01:41:22.170Z,3.10
2023-12-08T01:43:49.025Z,3.10
2023-12-08T01:46:18.876Z,3.09
2023-12-08T01:48:47.827Z,3.09
2023-12-08T01:51:17.466Z,3.09
2023-12-08T01:53:46.228Z,3.11
2023-12-08T01:56:14.755Z,3.14
2023-12-08T01:58:43.408Z,3.13
2023-12-08T02:01:12.034Z,3.15
2023-12-08T02:03:41.198Z,3.16
2023-12-08T02:06:09.104Z,3.16
2023-12-08T02:08:36.805Z,3.17
2023-12-08T02:11:03.887Z,3.16
2023-12-08T02:13:31.445Z,3.17
2023-12-08T02:16:34.756Z,3.24
2023-12-08T02:19:04.520Z,3.26
2023-12-08T02:21:32.852Z,3.23
2023-12-08T02:23:59.853Z,3.24
2023-12-08T02:26:27.340Z,3.25
2023-12-08T02:28:54.915Z,3.32
2023-12-08T02:31:35.460Z,3.39
2023-12-08T02:34:05.231Z,3.38
2023-12-08T02:36:35.102Z,3.38
2023-12-08T02:39:04.319Z,3.38
2023-12-08T02:41:31.534Z,3.41
2023-12-08T02:43:58.410Z,3.39
2023-12-08T02:46:25.304Z,3.35
2023-12-08T02:48:54.839Z,3.32
2023-12-08T02:51:22.448Z,3.27
2023-12-08T02:53:49.333Z,3.29
2023-12-08T02:56:16.196Z,3.31
2023-12-08T02:58:43.065Z,3.26
2023-12-08T03:01:10.093Z,3.31
2023-12-08T03:03:37.129Z,3.25
2023-12-08T03:06:04.278Z,3.22
2023-12-08T03:08:31.239Z,3.24
2023-12-08T03:10:58.178Z,3.21
2023-12-08T03:13:25.414Z,3.21
2023-12-08T03:15:52.240Z,3.24
2023-12-08T03:18:19.153Z,3.25
2023-12-08T03:20:46.323Z,3.27
2023-12-08T03:23:13.179Z,3.27
2023-12-08T03:25:40.040Z,3.26
2023-12-08T03:28:06.909Z,3.25
2023-12-08T03:30:33.764Z,3.24
2023-12-08T03:33:00.746Z,3.17
2023-12-08T03:35:28.454Z,3.16
2023-12-08T03:37:56.005Z,3.15
2023-12-08T03:40:22.865Z,3.17
2023-12-08T03:42:49.651Z,3.18
2023-12-08T03:45:16.798Z,3.19
2023-12-08T03:47:43.708Z,3.23
2023-12-08T03:50:10.821Z,3.27
2023-12-08T03:52:37.647Z,3.33
2023-12-08T03:55:05.076Z,3.39
2023-12-08T03:57:31.865Z,3.36
2023-12-08T03:59:58.735Z,3.37
2023-12-08T04:02:25.719Z,3.41
2023-12-08T04:04:52.575Z,3.39
2023-12-08T04:07:19.475Z,3.40
2023-12-08T04:09:46.587Z,3.30
2023-12-08T04:12:13.457Z,3.30
2023-12-08T04:14:40.770Z,3.28
2023-12-08T04:17:08.146Z,3.28
2023-12-08T04:19:35.129Z,3.31
2023-12-08T04:22:02.004Z,3.35
2023-12-08T04:24:29.501Z,3.35
2023-12-08T04:26:56.378Z,3.34
2023-12-08T04:29:23.207Z,3.31
2023-12-08T04:31:49.973Z,3.29
2023-12-08T04:34:16.948Z,3.26
2023-12-08T04:36:43.876Z,3.25
2023-12-08T04:39:10.975Z,3.26
2023-12-08T04:41:37.871Z,3.31
2023-12-08T04:44:04.926Z,3.34
2023-12-08T04:46:31.801Z,3.37
2023-12-08T04:48:58.688Z,3.36
2023-12-08T04:51:25.702Z,3.33
2023-12-08T04:53:59.094Z,3.35
2023-12-08T04:56:26.122Z,3.33
2023-12-08T04:58:53.007Z,3.32
2023-12-08T05:01:19.883Z,3.20
2023-12-08T05:03:46.834Z,3.10
2023-12-08T05:06:13.879Z,3.05
2023-12-08T05:08:41.192Z,2.96
2023-12-08T05:11:08.805Z,2.98
2023-12-08T05:13:36.481Z,2.95
2023-12-08T05:16:03.464Z,2.91
2023-12-08T05:18:30.549Z,2.88
2023-12-08T05:20:57.647Z,2.95
2023-12-08T05:23:24.571Z,3.03
2023-12-08T05:25:51.419Z,3.07
2023-12-08T05:28:19.844Z,3.05
2023-12-08T05:30:46.744Z,2.99
2023-12-08T05:33:13.752Z,2.96
2023-12-08T05:35:40.675Z,2.96
2023-12-08T05:38:07.584Z,2.93
2023-12-08T05:40:34.502Z,2.91
2023-12-08T05:43:01.365Z,2.86
2023-12-08T05:45:28.283Z,2.87
2023-12-08T05:47:55.374Z,2.90
2023-12-08T05:50:22.261Z,2.97
2023-12-08T05:52:49.140Z,3.00
2023-12-08T05:55:16.072Z,2.99
2023-12-08T05:57:43.003Z,2.96
2023-12-08T06:00:11.509Z,2.93
2023-12-08T06:02:39.117Z,2.95
2023-12-08T06:05:06.657Z,3.01
2023-12-08T06:07:33.590Z,2.99
2023-12-08T06:10:00.492Z,3.03
2023-12-08T06:12:27.296Z,3.02
2023-12-08T06:14:54.919Z,3.07
2023-12-08T06:17:22.008Z,3.10
2023-12-08T06:19:49.790Z,3.06
2023-12-08T06:22:16.633Z,3.11
2023-12-08T06:24:43.632Z,3.13
2023-12-08T06:27:11.241Z,3.13
2023-12-08T06:29:38.402Z,3.11
2023-12-08T06:32:06.515Z,3.10
2023-12-08T06:34:33.902Z,3.07
2023-12-08T06:37:01.072Z,3.09
2023-12-08T06:39:28.168Z,3.12
2023-12-08T06:41:55.069Z,3.13
2023-12-08T06:44:21.986Z,3.11
2023-12-08T06:46:49.182Z,3.11
2023-12-08T06:49:16.245Z,3.10
2023-12-08T06:51:43.526Z,3.09
2023-12-08T06:54:11.962Z,3.14
2023-12-08T06:56:45.824Z,3.17
2023-12-08T06:59:12.851Z,3.15
2023-12-08T07:01:39.671Z,3.18
2023-12-08T07:04:06.773Z,3.15
2023-12-08T07:06:34.179Z,3.14
2023-12-08T07:09:02.153Z,3.15
2023-12-08T07:11:28.962Z,3.16
2023-12-08T07:13:56.992Z,3.19
2023-12-08T07:16:24.005Z,3.16
2023-12-08T07:18:50.886Z,3.16
2023-12-08T07:21:18.920Z,3.16
2023-12-08T07:23:45.767Z,3.17
2023-12-08T07:26:12.607Z,3.13
2023-12-08T07:28:39.450Z,3.12
2023-12-08T07:31:06.647Z,3.15
2023-12-08T07:33:33.788Z,3.17
2023-12-08T07:36:00.699Z,3.25
2023-12-08T07:38:27.695Z,3.32
2023-12-08T07:40:54.589Z,3.31
2023-12-08T07:43:21.507Z,3.34
2023-12-08T07:45:48.401Z,3.31
2023-12-08T07:48:15.394Z,3.37
2023-12-08T07:50:42.383Z,3.42
2023-12-08T07:53:09.313Z,3.46
2023-12-08T07:55:36.291Z,3.54
2023-12-08T07:58:03.146Z,3.58
2023-12-08T08:00:31.590Z,3.56
2023-12-08T08:02:58.537Z,3.56
2023-12-08T08:05:26.179Z,3.56
2023-12-08T08:07:52.977Z,3.61
2023-12-08T08:10:19.775Z,3.59
2023-12-08T08:12:46.631Z,3.56
2023-12-08T08:15:13.476Z,3.55
2023-12-08T08:17:40.389Z,3.59
2023-12-08T08:20:08.427Z,3.65
2023-12-08T08:22:36.064Z,3.69
2023-12-08T08:25:03.608Z,3.66
2023-12-08T08:27:31.205Z,3.68
2023-12-08T08:29:58.882Z,3.74
2023-12-08T08:32:27.146Z,3.71
2023-12-08T08:34:57.006Z,3.74
2023-12-08T08:37:25.975Z,3.71
2023-12-08T08:39:53.179Z,3.72
2023-12-08T08:42:20.910Z,3.73
2023-12-08T08:44:47.779Z,3.77
2023-12-08T08:47:14.854Z,3.77
2023-12-08T08:49:42.118Z,3.78
2023-12-08T08:52:09.132Z,3.80
2023-12-08T08:54:36.352Z,3.79
2023-12-08T08:57:06.022Z,3.79
2023-12-08T08:59:33.140Z,3.77
2023-12-08T09:02:00.110Z,3.83
2023-12-08T09:04:27.216Z,3.87
2023-12-08T09:06:54.209Z,3.89
2023-12-08T09:09:21.196Z,3.95
2023-12-08T09:11:48.206Z,4.00
2023-12-08T09:14:16.103Z,4.03
2023-12-08T09:16:43.049Z,4.07
2023-12-08T09:19:10.054Z,4.09
2023-12-08T09:21:45.788Z,4.11
2023-12-08T09:24:16.229Z,4.12
2023-12-08T09:26:43.196Z,4.15
2023-12-08T09:29:10.646Z,4.18
2023-12-08T09:31:37.533Z,4.24
2023-12-08T09:34:04.540Z,4.31
2023-12-08T09:36:32.245Z,4.29
2023-12-08T09:38:59.103Z,4.33
2023-12-08T09:41:28.398Z,4.35
2023-12-08T09:44:06.450Z,4.33
2023-12-08T09:46:35.769Z,4.31
2023-12-08T09:49:07.891Z,4.32
2023-12-08T09:51:34.920Z,4.37
2023-12-08T09:54:01.813Z,4.38
2023-12-08T09:56:29.972Z,4.42
2023-12-08T09:58:57.229Z,4.48
2023-12-08T10:01:24.140Z,4.54
2023-12-08T10:03:51.263Z,4.60
2023-12-08T10:06:22.157Z,4.69
2023-12-08T10:08:49.107Z,4.73
2023-12-08T10:11:16.418Z,4.77
2023-12-08T10:13:44.292Z,4.83
2023-12-08T10:16:11.340Z,4.91
2023-12-08T10:18:38.670Z,4.93
2023-12-08T10:21:20.478Z,5.02
2023-12-08T10:23:48.192Z,5.03
2023-12-08T10:26:17.631Z,5.04
2023-12-08T10:28:44.966Z,5.06
2023-12-08T10:31:11.931Z,5.09
2023-12-08T10:33:42.506Z,5.15
2023-12-08T10:36:10.273Z,5.20
2023-12-08T10:38:37.494Z,5.26
2023-12-08T10:41:06.150Z,5.29
2023-12-08T10:43:33.022Z,5.32
2023-12-08T10:46:01.167Z,5.31
2023-12-08T10:48:28.289Z,5.31
2023-12-08T10:50:55.292Z,5.33
2023-12-08T10:53:22.704Z,5.41
2023-12-08T10:56:07.845Z,5.46
2023-12-08T10:58:37.050Z,5.57
2023-12-08T11:01:15.903Z,5.65
2023-12-08T11:03:53.958Z,5.69
2023-12-08T11:06:35.829Z,5.69
2023-12-08T11:09:08.356Z,5.78
2023-12-08T11:11:43.607Z,6.04
2023-12-08T11:14:18.999Z,6.10
2023-12-08T11:16:58.912Z,5.94
2023-12-08T11:19:31.686Z,5.84
2023-12-08T11:22:00.535Z,5.78
2023-12-08T11:24:30.057Z,5.78
2023-12-08T11:27:19.622Z,5.73
2023-12-08T11:30:11.638Z,5.73
2023-12-08T11:33:13.075Z,5.76
2023-12-08T11:35:40.373Z,5.84
2023-12-08T11:38:09.637Z,5.93
2023-12-08T11:40:55.941Z,5.91
2023-12-08T11:43:22.805Z,5.90
2023-12-08T11:45:51.141Z,5.95
2023-12-08T11:48:18.047Z,5.94
2023-12-08T11:50:47.645Z,5.92
2023-12-08T11:53:14.723Z,5.92
2023-12-08T11:55:41.670Z,5.96
2023-12-08T11:58:12.425Z,5.94
2023-12-08T12:00:40.847Z,5.96
2023-12-08T12:03:09.955Z,5.97
2023-12-08T12:05:37.578Z,5.99
2023-12-08T12:08:08.123Z,5.97
2023-12-08T12:10:35.959Z,5.96
2023-12-08T12:13:14.372Z,5.93
2023-12-08T12:15:43.209Z,5.89
2023-12-08T12:18:12.545Z,5.87
2023-12-08T12:20:40.109Z,5.84
2023-12-08T12:23:07.938Z,5.84
2023-12-08T12:25:35.086Z,5.81
2023-12-08T12:28:01.960Z,5.78
2023-12-08T12:30:30.082Z,5.78
2023-12-08T12:32:58.581Z,5.80
2023-12-08T12:35:28.405Z,5.79
2023-12-08T12:37:55.901Z,5.77
2023-12-08T12:40:25.392Z,5.80
2023-12-08T12:42:52.278Z,5.79
2023-12-08T12:45:31.940Z,5.79
2023-12-08T12:48:08.752Z,5.80
2023-12-08T12:50:47.755Z,5.85
2023-12-08T12:53:17.834Z,5.94
2023-12-08T12:55:47.162Z,5.94
2023-12-08T12:58:25.134Z,5.89
2023-12-08T13:00:53.320Z,5.87
2023-12-08T13:03:24.169Z,5.88
2023-12-08T13:05:58.067Z,5.86
2023-12-08T13:08:25.498Z,5.87
2023-12-08T13:10:55.127Z,5.88
2023-12-08T13:13:22.444Z,5.89
2023-12-08T13:15:49.994Z,5.91
2023-12-08T13:18:17.537Z,5.93
2023-12-08T13:20:44.819Z,5.95
2023-12-08T13:23:13.454Z,5.97
2023-12-08T13:25:40.333Z,6.00
2023-12-08T13:28:09.466Z,6.02
2023-12-08T13:30:37.436Z,5.99
2023-12-08T13:33:07.224Z,6.01
2023-12-08T13:35:36.652Z,6.01
2023-12-08T13:38:03.654Z,6.02
2023-12-08T13:40:32.024Z,6.04
2023-12-08T13:42:58.987Z,6.04
2023-12-08T13:45:26.748Z,6.04
2023-12-08T13:47:53.921Z,6.03
2023-12-08T13:50:20.940Z,6.04
2023-12-08T13:52:47.748Z,6.04
2023-12-08T13:55:15.139Z,6.02
2023-12-08T13:57:42.080Z,6.05
2023-12-08T14:00:10.029Z,6.05
2023-12-08T14:02:37.828Z,6.05
2023-12-08T14:05:48.203Z,6.03
2023-12-08T14:08:16.900Z,6.01
2023-12-08T14:10:44.163Z,6.02
2023-12-08T14:13:10.986Z,6.07
2023-12-08T14:15:39.329Z,6.14
2023-12-08T14:18:08.133Z,6.14
2023-12-08T14:20:40.304Z,6.11
2023-12-08T14:23:07.883Z,6.09
2023-12-08T14:25:35.397Z,6.06
2023-12-08T14:28:02.224Z,6.05
2023-12-08T14:30:29.094Z,6.04
2023-12-08T14:32:56.711Z,6.04
2023-12-08T14:35:30.508Z,6.05
2023-12-08T14:37:58.946Z,6.05
2023-12-08T14:40:28.321Z,6.06
2023-12-08T14:43:00.987Z,6.05
2023-12-08T14:45:29.083Z,6.05
2023-12-08T14:48:09.101Z,6.02
2023-12-08T14:50:37.251Z,6.02
2023-12-08T14:53:23.830Z,6.00
2023-12-08T14:55:59.244Z,6.01
2023-12-08T14:58:34.382Z,6.00
2023-12-08T15:01:01.277Z,6.00
2023-12-08T15:03:33.535Z,5.98
2023-12-08T15:06:08.862Z,5.98
2023-12-08T15:08:36.011Z,5.98
2023-12-08T15:11:03.276Z,5.96
2023-12-08T15:13:59.241Z,5.96
2023-12-08T15:16:26.101Z,5.95
2023-12-08T15:19:11.448Z,5.94
2023-12-08T15:21:40.337Z,5.94
2023-12-08T15:24:07.545Z,5.92
2023-12-08T15:26:34.384Z,5.93
2023-12-08T15:29:01.508Z,5.96
2023-12-08T15:31:30.369Z,5.96
2023-12-08T15:33:57.392Z,5.96
2023-12-08T15:36:24.370Z,5.97
2023-12-08T15:38:54.132Z,5.96
2023-12-08T15:41:21.285Z,5.95
2023-12-08T15:43:48.478Z,5.93
2023-12-08T15:46:16.370Z,5.91
2023-12-08T15:49:07.613Z,5.90
2023-12-08T15:51:44.921Z,5.91
2023-12-08T15:54:17.820Z,5.92
2023-12-08T15:56:45.417Z,5.93
2023-12-08T15:59:12.467Z,5.94
2023-12-08T16:01:39.753Z,5.93
2023-12-08T16:04:18.624Z,5.90
2023-12-08T16:06:45.443Z,5.91
2023-12-08T16:09:12.387Z,5.94
2023-12-08T16:11:39.326Z,5.96
2023-12-08T16:14:06.485Z,6.00
2023-12-08T16:16:33.409Z,6.03
2023-12-08T16:19:00.575Z,6.06
2023-12-08T16:21:29.706Z,6.09
2023-12-08T16:23:59.145Z,6.12
2023-12-08T16:26:27.847Z,6.11
2023-12-08T16:28:55.327Z,6.09
2023-12-08T16:31:23.931Z,6.08
2023-12-08T16:33:51.168Z,6.07
2023-12-08T16:36:23.582Z,6.05
2023-12-08T16:38:50.789Z,6.07
2023-12-08T16:41:17.704Z,6.07
2023-12-08T16:43:44.656Z,6.07
2023-12-08T16:46:11.564Z,6.08
2023-12-08T16:48:38.586Z,6.07
2023-12-08T16:51:23.702Z,6.09
2023-12-08T16:53:50.854Z,6.09
2023-12-08T16:56:18.110Z,6.11
2023-12-08T16:58:48.065Z,6.12
2023-12-08T17:01:23.005Z,6.12
2023-12-08T17:04:00.082Z,6.14
2023-12-08T17:06:30.688Z,6.18
2023-12-08T17:08:57.660Z,6.17
2023-12-08T17:11:24.719Z,6.19
2023-12-08T17:13:51.891Z,6.18
2023-12-08T17:16:18.798Z,6.18
2023-12-08T17:18:45.940Z,6.19
2023-12-08T17:21:13.030Z,6.20
2023-12-08T17:23:39.998Z,6.21
2023-12-08T17:26:06.877Z,6.21
2023-12-08T17:28:33.700Z,6.23
2023-12-08T17:31:00.911Z,6.24
2023-12-08T17:33:27.996Z,6.25
2023-12-08T17:35:55.049Z,6.25
2023-12-08T17:38:22.176Z,6.25
2023-12-08T17:40:51.860Z,6.26
2023-12-08T17:43:18.716Z,6.28
2023-12-08T17:45:45.912Z,6.29
2023-12-08T17:48:12.881Z,6.30
2023-12-08T17:50:39.900Z,6.29
2023-12-08T17:53:06.757Z,6.28
2023-12-08T17:55:33.770Z,6.28
2023-12-08T17:58:00.636Z,6.27
2023-12-08T18:00:27.594Z,6.25
2023-12-08T18:02:56.255Z,6.23
2023-12-08T18:05:23.733Z,6.22
2023-12-08T18:07:50.786Z,6.24
2023-12-08T18:10:17.848Z,6.26
2023-12-08T18:12:44.656Z,6.30
2023-12-08T18:15:12.312Z,6.41
2023-12-08T18:17:40.994Z,6.45
2023-12-08T18:20:09.071Z,6.46
2023-12-08T18:22:37.184Z,6.50
2023-12-08T18:25:04.345Z,6.52
2023-12-08T18:27:43.280Z,6.52
2023-12-08T18:30:19.737Z,6.55
2023-12-08T18:32:47.053Z,6.56
2023-12-08T18:35:13.960Z,6.56
2023-12-08T18:37:40.826Z,6.59
2023-12-08T18:40:08.819Z,6.61
2023-12-08T18:42:35.798Z,6.61
2023-12-08T18:45:03.137Z,6.57
2023-12-08T18:47:29.975Z,6.56
2023-12-08T18:49:56.899Z,6.56
2023-12-08T18:52:24.019Z,6.59
2023-12-08T18:54:50.905Z,6.57
2023-12-08T18:57:17.741Z,6.57
2023-12-08T18:59:44.746Z,6.59
2023-12-08T19:02:11.646Z,6.62
2023-12-08T19:04:38.659Z,6.62
2023-12-08T19:07:06.809Z,6.61
2023-12-08T19:09:33.844Z,6.61
2023-12-08T19:12:04.036Z,6.65
2023-12-08T19:14:32.059Z,6.65
2023-12-08T19:16:58.867Z,6.63
2023-12-08T19:19:26.185Z,6.62
2023-12-08T19:21:53.775Z,6.64
2023-12-08T19:24:21.084Z,6.62
2023-12-08T19:26:48.325Z,6.64
2023-12-08T19:29:17.146Z,6.64
2023-12-08T19:31:45.440Z,6.64
2023-12-08T19:34:12.350Z,6.62
2023-12-08T19:36:39.325Z,6.62
2023-12-08T19:39:08.373Z,6.61
2023-12-08T19:41:35.353Z,6.62
2023-12-08T19:44:02.337Z,6.62
2023-12-08T19:46:29.214Z,6.63
2023-12-08T19:48:56.171Z,6.62
2023-12-08T19:51:23.168Z,6.59
2023-12-08T19:53:49.999Z,6.58
2023-12-08T19:56:17.257Z,6.61
2023-12-08T19:58:44.149Z,6.61
2023-12-08T20:01:11.081Z,6.59
2023-12-08T20:03:38.104Z,6.62
2023-12-08T20:06:05.442Z,6.61
2023-12-08T20:08:32.371Z,6.60
2023-12-08T20:10:59.657Z,6.60
2023-12-08T20:13:26.599Z,6.61
2023-12-08T20:15:53.497Z,6.61
2023-12-08T20:18:21.235Z,6.58
2023-12-08T20:20:48.286Z,6.61
2023-12-08T20:23:15.270Z,6.61
2023-12-08T20:25:42.095Z,6.63
2023-12-08T20:28:09.520Z,6.62
2023-12-08T20:30:36.871Z,6.64
2023-12-08T20:33:04.122Z,6.65
2023-12-08T20:35:31.158Z,6.65
2023-12-08T20:37:58.170Z,6.64
2023-12-08T20:40:24.984Z,6.63
2023-12-08T20:42:52.068Z,6.63
2023-12-08T20:45:18.900Z,6.63
2023-12-08T20:47:46.781Z,6.63
2023-12-08T20:50:13.841Z,6.64
2023-12-08T20:52:40.693Z,6.64
2023-12-08T20:55:08.005Z,6.65
2023-12-08T20:57:34.990Z,6.65
2023-12-08T21:00:02.119Z,6.63
2023-12-08T21:02:29.221Z,6.61
2023-12-08T21:04:55.999Z,6.58
2023-12-08T21:07:23.688Z,6.57
2023-12-08T21:09:50.839Z,6.60
2023-12-08T21:12:18.465Z,6.60
2023-12-08T21:14:45.740Z,6.62
2023-12-08T21:17:13.707Z,6.63
2023-12-08T21:19:40.744Z,6.65
2023-12-08T21:22:07.667Z,6.68
2023-12-08T21:24:34.534Z,6.67
2023-12-08T21:27:01.493Z,6.69
2023-12-08T21:29:28.339Z,6.68
2023-12-08T21:31:55.174Z,6.68
2023-12-08T21:34:22.048Z,6.68
2023-12-08T21:36:49.192Z,6.67
2023-12-08T21:39:16.053Z,6.66
2023-12-08T21:41:42.960Z,6.66
2023-12-08T21:44:10.179Z,6.66
2023-12-08T21:46:37.578Z,6.64
2023-12-08T21:49:04.672Z,6.65
2023-12-08T21:51:32.037Z,6.64
2023-12-08T21:53:59.039Z,6.64
2023-12-08T21:56:29.902Z,6.64
2023-12-08T21:59:00.157Z,6.65
2023-12-08T22:01:27.514Z,6.67
2023-12-08T22:03:57.627Z,6.66
2023-12-08T22:06:25.345Z,6.65
2023-12-08T22:08:52.502Z,6.63
2023-12-08T22:11:19.955Z,6.61
2023-12-08T22:13:47.583Z,6.61
2023-12-08T22:16:14.810Z,6.61
2023-12-08T22:18:42.161Z,6.59
2023-12-08T22:21:11.145Z,6.55
2023-12-08T22:23:38.692Z,6.56
2023-12-08T22:26:05.610Z,6.58
2023-12-08T22:28:32.933Z,6.58
2023-12-08T22:30:59.819Z,6.56
2023-12-08T22:33:27.336Z,6.54
2023-12-08T22:35:55.030Z,6.50
2023-12-08T22:38:22.059Z,6.49
2023-12-08T22:40:50.159Z,6.51
2023-12-08T22:43:17.116Z,6.52
2023-12-08T22:45:43.930Z,6.52
2023-12-08T22:48:10.922Z,6.51
2023-12-08T22:50:43.982Z,6.51
2023-12-08T22:53:16.548Z,6.52
2023-12-08T22:55:44.349Z,6.52
2023-12-08T22:58:11.499Z,6.49
2023-12-08T23:00:38.754Z,6.49
2023-12-08T23:03:06.027Z,6.49
2023-12-08T23:05:34.166Z,6.50
2023-12-08T23:08:01.354Z,6.48
2023-12-08T23:10:28.146Z,6.47
2023-12-08T23:12:54.928Z,6.42
2023-12-08T23:15:25.527Z,6.41
2023-12-08T23:17:54.692Z,6.42
2023-12-08T23:20:22.228Z,6.46
2023-12-08T23:22:50.070Z,6.46
2023-12-08T23:25:16.911Z,6.46
2023-12-08T23:27:46.125Z,6.45
2023-12-08T23:30:13.431Z,6.46
2023-12-08T23:32:40.382Z,6.47
2023-12-08T23:35:08.899Z,6.49
2023-12-08T23:37:35.870Z,6.48
2023-12-08T23:40:02.901Z,6.47
2023-12-08T23:42:30.953Z,6.43
2023-12-08T23:44:58.059Z,6.44
2023-12-08T23:47:24.900Z,6.43
2023-12-08T23:49:51.789Z,6.39
2023-12-08T23:52:18.638Z,6.34
2023-12-08T23:54:46.058Z,6.36
2023-12-08T23:57:13.831Z,6.37
2023-12-08T23:59:41.600Z,6.37
